Time;durP1;ratioP1;P1;durP2;ratioP2;P2;SDS_P1;SDS_P2;PMS_P1;PMS_P2;Temp;Humidity;BMP_temperature;BMP_pressure;BME280_temperature;BME280_humidity;BME280_pressure;Samples;Min_cycle;Max_cycle;Signal;HPM_P1;HPM_P2
2021/10/16 00:02:15;;;;;;;2.25;2.10;;;19.50;88.00;;;;;;5034724;28;20028;-71
2021/10/16 00:04:43;;;;;;;2.28;2.17;;;19.40;89.00;;;;;;5034755;28;20037;-72
2021/10/16 00:07:10;;;;;;;2.10;2.00;;;19.40;90.00;;;;;;5034872;28;20036;-71
2021/10/16 00:09:37;;;;;;;1.88;1.80;;;19.50;88.50;;;;;;5016481;28;20028;-71
2021/10/16 00:12:05;;;;;;;2.03;1.90;;;19.60;88.90;;;;;;5034492;28;20448;-72
2021/10/16 00:14:33;;;;;;;2.00;1.90;;;19.60;88.20;;;;;;5016913;28;20087;-71
2021/10/16 00:17:00;;;;;;;1.60;1.60;;;19.40;88.10;;;;;;5033139;28;20033;-71
2021/10/16 00:19:28;;;;;;;1.60;1.60;;;19.50;88.40;;;;;;5033052;28;20390;-72
2021/10/16 00:21:55;;;;;;;1.95;1.92;;;19.80;88.80;;;;;;5016778;28;20053;-71
2021/10/16 00:24:22;;;;;;;1.58;1.58;;;19.80;88.00;;;;;;5034335;28;20028;-71
2021/10/16 00:26:49;;;;;;;1.92;1.83;;;20.00;88.40;;;;;;5033503;28;20025;-71
2021/10/16 00:29:17;;;;;;;2.10;1.73;;;20.00;87.20;;;;;;5034574;28;20033;-71
2021/10/16 00:31:45;;;;;;;1.92;1.83;;;20.30;87.90;;;;;;5016621;28;20029;-72
2021/10/16 00:34:12;;;;;;;1.80;1.80;;;20.40;86.90;;;;;;5034288;28;20029;-72
2021/10/16 00:36:39;;;;;;;2.00;1.90;;;20.20;87.70;;;;;;5034534;28;20052;-72
2021/10/16 00:39:07;;;;;;;1.83;1.73;;;20.10;87.10;;;;;;5034325;28;20378;-72
2021/10/16 00:41:34;;;;;;;1.90;1.80;;;20.20;88.00;;;;;;5032794;28;20022;-72
2021/10/16 00:44:15;;;;;;;2.00;1.90;;;20.20;85.60;;;;;;5033980;28;20022;-72
2021/10/16 00:46:44;;;;;;;1.95;1.85;;;20.30;86.20;;;;;;5032780;28;20033;-72
2021/10/16 00:49:12;;;;;;;2.00;1.90;;;20.50;86.60;;;;;;5033979;28;20025;-72
2021/10/16 00:51:40;;;;;;;1.75;1.70;;;20.70;85.90;;;;;;5033917;28;20028;-72
2021/10/16 00:54:09;;;;;;;1.50;1.50;;;20.60;85.40;;;;;;5032542;28;20482;-73
2021/10/16 00:56:44;;;;;;;2.08;1.98;;;21.10;86.80;;;;;;5033885;28;20030;-72
2021/10/16 00:59:12;;;;;;;1.80;1.80;;;21.80;84.50;;;;;;5015941;28;20076;-71
2021/10/16 01:01:39;;;;;;;2.13;2.03;;;22.20;83.30;;;;;;5033743;28;20105;-72
2021/10/16 01:04:07;;;;;;;2.35;1.75;;;22.40;81.50;;;;;;5033798;28;20101;-72
2021/10/16 01:06:37;;;;;;;2.38;2.00;;;22.10;83.90;;;;;;5014016;28;20123;-71
2021/10/16 01:09:08;;;;;;;1.90;1.90;;;22.10;81.30;;;;;;5013867;28;20018;-72
2021/10/16 01:11:38;;;;;;;2.13;2.03;;;22.10;82.30;;;;;;5012398;28;20399;-71
2021/10/16 01:14:08;;;;;;;2.05;1.95;;;22.60;81.70;;;;;;5014045;28;20025;-72
2021/10/16 01:16:37;;;;;;;2.42;2.33;;;22.90;81.70;;;;;;5013885;28;20124;-71
2021/10/16 01:19:14;;;;;;;2.33;1.90;;;23.10;80.80;;;;;;5013455;28;20034;-71
2021/10/16 01:21:55;;;;;;;1.80;1.80;;;23.30;81.30;;;;;;5028701;28;20030;-73
2021/10/16 01:24:22;;;;;;;1.80;1.80;;;23.50;80.20;;;;;;5013764;28;20025;-72
2021/10/16 01:26:51;;;;;;;2.00;1.90;;;23.70;79.30;;;;;;5028313;28;20030;-72
2021/10/16 01:29:25;;;;;;;2.05;1.95;;;23.00;79.20;;;;;;5013513;28;20057;-72
2021/10/16 01:31:54;;;;;;;1.85;1.85;;;22.50;80.20;;;;;;5013273;28;20024;-73
2021/10/16 01:34:22;;;;;;;2.92;1.90;;;22.40;80.10;;;;;;5013568;28;20029;-72
2021/10/16 01:36:50;;;;;;;2.10;2.00;;;22.30;82.40;;;;;;5013491;28;20109;-72
2021/10/16 01:39:18;;;;;;;2.13;2.03;;;21.80;81.00;;;;;;5027522;28;20022;-72
2021/10/16 01:41:46;;;;;;;2.00;1.90;;;21.50;81.10;;;;;;5013202;28;20037;-72
2021/10/16 01:44:14;;;;;;;2.10;2.00;;;21.50;82.30;;;;;;5028564;28;20465;-72
2021/10/16 01:46:43;;;;;;;1.80;1.80;;;21.70;82.70;;;;;;5028308;28;20046;-72
2021/10/16 01:49:15;;;;;;;1.70;1.70;;;21.90;81.40;;;;;;5013527;28;20021;-72
2021/10/16 01:51:43;;;;;;;1.80;1.80;;;21.80;83.10;;;;;;5013130;28;20036;-72
2021/10/16 01:54:11;;;;;;;1.70;1.60;;;21.60;82.10;;;;;;5013514;28;20109;-73
2021/10/16 01:56:39;;;;;;;1.60;1.60;;;21.30;82.00;;;;;;5028380;28;20057;-71
2021/10/16 01:59:14;;;;;;;1.80;1.70;;;21.40;82.90;;;;;;5027918;28;20475;-71
2021/10/16 02:01:41;;;;;;;1.92;1.60;;;22.20;81.20;;;;;;5013110;28;20022;-71
2021/10/16 02:04:09;;;;;;;1.60;1.60;;;22.70;80.10;;;;;;5013175;28;20049;-72
2021/10/16 02:06:36;;;;;;;1.30;1.20;;;22.90;79.20;;;;;;5015095;28;20033;-71
2021/10/16 02:09:05;;;;;;;1.30;1.30;;;22.40;80.60;;;;;;5032886;28;20034;-71
2021/10/16 02:11:33;;;;;;;1.90;1.80;;;21.80;80.60;;;;;;5031471;28;20029;-72
2021/10/16 02:14:01;;;;;;;1.80;1.70;;;22.30;81.80;;;;;;5031229;28;20033;-72
2021/10/16 02:16:29;;;;;;;2.30;2.20;;;21.90;80.00;;;;;;5031595;28;20084;-71
2021/10/16 02:18:57;;;;;;;1.92;1.90;;;22.60;79.60;;;;;;5032793;28;20021;-72
2021/10/16 02:21:25;;;;;;;2.20;2.00;;;22.90;77.60;;;;;;5031381;28;20018;-72
2021/10/16 02:23:52;;;;;;;2.03;1.92;;;23.10;78.20;;;;;;5032789;28;20104;-71
2021/10/16 02:26:20;;;;;;;1.85;1.85;;;23.50;77.30;;;;;;5032797;28;20025;-71
2021/10/16 02:28:47;;;;;;;1.95;1.90;;;23.50;77.20;;;;;;5031238;28;20044;-72
2021/10/16 02:31:14;;;;;;;2.13;2.03;;;23.10;77.90;;;;;;5032700;28;20418;-72
2021/10/16 02:33:42;;;;;;;2.30;2.20;;;22.80;77.10;;;;;;5014947;28;20463;-72
2021/10/16 02:36:09;;;;;;;1.83;1.83;;;23.10;76.60;;;;;;5014779;28;20084;-71
2021/10/16 02:38:36;;;;;;;1.98;1.95;;;23.50;77.70;;;;;;5032498;28;20068;-71
2021/10/16 02:41:04;;;;;;;1.70;1.60;;;23.60;76.40;;;;;;5033294;28;20053;-71
2021/10/16 02:43:31;;;;;;;1.73;1.73;;;23.30;77.70;;;;;;5032713;28;20454;-72
2021/10/16 02:45:58;;;;;;;1.70;1.60;;;22.70;78.80;;;;;;5031187;28;20021;-71
2021/10/16 02:48:26;;;;;;;1.80;1.80;;;22.50;79.50;;;;;;5032664;28;20100;-72
2021/10/16 02:50:53;;;;;;;1.88;1.77;;;22.30;79.70;;;;;;5017767;28;20033;-71
2021/10/16 02:53:20;;;;;;;1.85;1.77;;;22.90;81.10;;;;;;5018382;28;20393;-71
2021/10/16 02:55:48;;;;;;;1.90;1.80;;;23.70;79.30;;;;;;5018292;28;20025;-71
2021/10/16 02:58:16;;;;;;;1.75;1.75;;;23.80;75.70;;;;;;5036037;28;20026;-71
2021/10/16 03:00:44;;;;;;;2.10;2.00;;;23.20;78.30;;;;;;5036123;28;20034;-71
2021/10/16 03:03:11;;;;;;;2.10;2.00;;;23.20;78.50;;;;;;5018152;28;20112;-71
2021/10/16 03:05:38;;;;;;;2.53;2.33;;;22.80;77.60;;;;;;5035471;28;20046;-71
2021/10/16 03:08:06;;;;;;;2.33;2.22;;;22.60;80.90;;;;;;5035692;28;20478;-70
2021/10/16 03:10:33;;;;;;;2.88;2.78;;;22.60;79.10;;;;;;5018198;28;20100;-71
2021/10/16 03:13:00;;;;;;;2.75;2.35;;;22.50;80.30;;;;;;5035704;28;20028;-71
2021/10/16 03:15:27;;;;;;;2.40;2.20;;;22.40;79.00;;;;;;5035944;28;20022;-71
2021/10/16 03:17:55;;;;;;;2.30;2.10;;;21.90;79.70;;;;;;5035576;28;20528;-71
2021/10/16 03:20:22;;;;;;;2.00;1.90;;;22.00;80.40;;;;;;5035536;28;20359;-70
2021/10/16 03:22:49;;;;;;;1.92;1.83;;;22.20;80.50;;;;;;5034483;28;20049;-71
2021/10/16 03:25:17;;;;;;;1.80;1.70;;;22.10;79.70;;;;;;5035578;28;20033;-72
2021/10/16 03:27:47;;;;;;;1.70;1.70;;;22.40;80.40;;;;;;5035663;28;20038;-71
2021/10/16 03:30:14;;;;;;;2.00;1.90;;;22.70;78.30;;;;;;5035701;28;20450;-71
2021/10/16 03:32:41;;;;;;;1.80;1.80;;;23.00;79.20;;;;;;5035536;28;20087;-71
2021/10/16 03:35:09;;;;;;;1.60;1.60;;;23.00;78.60;;;;;;5017495;28;20541;-71
2021/10/16 03:37:36;;;;;;;1.42;1.42;;;22.50;78.80;;;;;;5035235;28;20115;-71
2021/10/16 03:40:04;;;;;;;1.60;1.60;;;22.10;77.80;;;;;;5035189;28;20505;-72
2021/10/16 03:42:35;;;;;;;1.77;1.70;;;22.10;78.20;;;;;;5035430;28;20018;-72
2021/10/16 03:45:01;;;;;;;;;;;22.00;78.00;;;;;;5035866;28;20024;-71
2021/10/16 03:47:29;;;;;;;1.90;1.80;;;22.00;79.20;;;;;;5035346;28;19912;-72
2021/10/16 03:49:56;;;;;;;1.98;1.88;;;22.30;78.90;;;;;;5034982;28;20026;-71
2021/10/16 03:52:23;;;;;;;2.13;1.90;;;22.30;78.00;;;;;;5035069;28;20023;-72
2021/10/16 03:54:50;;;;;;;2.10;2.00;;;22.10;77.40;;;;;;5035084;28;20029;-71
2021/10/16 03:57:18;;;;;;;1.70;1.70;;;21.80;77.60;;;;;;5034830;28;20401;-72
2021/10/16 03:59:45;;;;;;;1.90;1.90;;;21.90;78.50;;;;;;5035118;28;20112;-71
2021/10/16 04:02:13;;;;;;;1.90;1.88;;;21.90;78.60;;;;;;5033853;28;20478;-71
2021/10/16 04:04:40;;;;;;;2.55;2.05;;;21.90;78.90;;;;;;5034575;28;20041;-72
2021/10/16 04:07:08;;;;;;;2.55;2.15;;;22.00;77.60;;;;;;5016994;28;20025;-72
2021/10/16 04:09:35;;;;;;;1.67;1.65;;;22.40;77.00;;;;;;5016924;28;20030;-71
2021/10/16 04:12:02;;;;;;;1.88;1.77;;;22.80;77.50;;;;;;5034385;28;20025;-71
2021/10/16 04:14:29;;;;;;;1.98;1.83;;;23.20;77.00;;;;;;5034637;28;20030;-70
2021/10/16 04:16:57;;;;;;;3.50;1.75;;;23.30;76.90;;;;;;5034891;28;20018;-70
2021/10/16 04:19:24;;;;;;;2.65;1.77;;;23.10;77.60;;;;;;5034250;28;20021;-71
2021/10/16 04:21:51;;;;;;;1.75;1.65;;;23.00;76.20;;;;;;5034813;28;20018;-72
2021/10/16 04:24:19;;;;;;;1.73;1.60;;;22.90;75.70;;;;;;5034572;28;20020;-71
2021/10/16 04:26:47;;;;;;;2.10;1.73;;;23.00;75.30;;;;;;5016675;28;20053;-71
2021/10/16 04:29:14;;;;;;;2.13;1.60;;;23.20;76.10;;;;;;5033171;28;20387;-72
2021/10/16 04:31:42;;;;;;;1.80;1.70;;;23.10;73.30;;;;;;5034399;28;20029;-71
2021/10/16 04:34:09;;;;;;;1.95;1.80;;;22.80;74.20;;;;;;5016645;28;20107;-71
2021/10/16 04:36:37;;;;;;;1.90;1.80;;;22.80;74.00;;;;;;5034459;28;20029;-71
2021/10/16 04:39:05;;;;;;;2.00;1.90;;;22.80;74.30;;;;;;5034122;28;20030;-71
2021/10/16 04:41:35;;;;;;;2.05;2.00;;;22.90;75.30;;;;;;5034182;28;20025;-71
2021/10/16 04:44:04;;;;;;;2.47;2.10;;;23.00;74.30;;;;;;5034101;28;20014;-71
2021/10/16 04:46:31;;;;;;;2.10;1.90;;;22.80;72.60;;;;;;5034238;28;20100;-71
2021/10/16 04:48:59;;;;;;;2.42;2.00;;;22.40;72.40;;;;;;5034355;28;20021;-72
2021/10/16 04:51:26;;;;;;;2.47;2.28;;;22.50;73.60;;;;;;5033863;28;20017;-72
2021/10/16 04:53:53;;;;;;;1.92;1.80;;;22.30;73.30;;;;;;5033844;28;20043;-72
2021/10/16 04:56:21;;;;;;;2.28;2.13;;;22.20;73.00;;;;;;5034078;28;20102;-71
2021/10/16 04:58:48;;;;;;;2.00;1.80;;;22.00;72.00;;;;;;5033648;28;20032;-72
2021/10/16 05:01:15;;;;;;;1.75;1.65;;;22.10;72.50;;;;;;5033901;28;20045;-71
2021/10/16 05:03:43;;;;;;;1.80;1.70;;;21.80;71.70;;;;;;5034000;28;20068;-71
2021/10/16 05:06:10;;;;;;;4.30;1.70;;;21.80;72.80;;;;;;5015705;28;20053;-72
2021/10/16 05:08:37;;;;;;;1.60;1.60;;;22.00;72.30;;;;;;5016058;28;20017;-72
2021/10/16 05:11:05;;;;;;;1.75;1.65;;;22.10;73.10;;;;;;5033767;28;20078;-71
2021/10/16 05:13:32;;;;;;;2.65;1.67;;;21.90;71.60;;;;;;5033737;28;20454;-71
2021/10/16 05:16:00;;;;;;;2.25;1.58;;;21.70;72.30;;;;;;5033581;28;20029;-72
2021/10/16 05:18:27;;;;;;;3.72;1.67;;;21.50;72.40;;;;;;5032111;28;20070;-71
2021/10/16 05:20:55;;;;;;;1.60;1.50;;;21.40;73.10;;;;;;5015667;28;20027;-71
2021/10/16 05:23:22;;;;;;;2.03;1.85;;;21.20;73.40;;;;;;5033519;28;20489;-71
2021/10/16 05:25:49;;;;;;;3.38;2.20;;;21.30;73.00;;;;;;5033391;28;20020;-72
2021/10/16 05:28:17;;;;;;;2.20;2.00;;;21.30;72.70;;;;;;5015573;28;20030;-72
2021/10/16 05:30:44;;;;;;;1.73;1.63;;;21.30;72.00;;;;;;5033278;28;20022;-71
2021/10/16 05:33:11;;;;;;;2.10;1.92;;;21.40;72.30;;;;;;5015630;28;20398;-72
2021/10/16 05:35:44;;;;;;;9.00;2.40;;;21.60;72.40;;;;;;5015307;28;20025;-71
2021/10/16 05:38:14;;;;;;;1.90;1.80;;;21.40;72.00;;;;;;5033203;28;20025;-72
2021/10/16 05:40:42;;;;;;;1.95;1.77;;;21.10;72.30;;;;;;5033499;28;20429;-72
2021/10/16 05:43:09;;;;;;;1.92;1.83;;;21.40;73.50;;;;;;5033097;28;20026;-70
2021/10/16 05:45:37;;;;;;;4.10;2.50;;;21.30;72.80;;;;;;5033075;28;20525;-71
2021/10/16 05:48:05;;;;;;;2.17;1.88;;;21.30;72.60;;;;;;5033072;28;20029;-73
2021/10/16 05:50:32;;;;;;;2.25;2.00;;;21.30;72.30;;;;;;5033018;28;20030;-71
2021/10/16 05:52:59;;;;;;;1.98;1.88;;;21.40;73.40;;;;;;5015389;28;20083;-72
2021/10/16 05:55:26;;;;;;;2.50;2.30;;;21.40;73.10;;;;;;5033010;28;20025;-72
2021/10/16 05:57:54;;;;;;;2.10;2.00;;;21.30;73.10;;;;;;5033227;28;20028;-73
2021/10/16 06:00:21;;;;;;;2.00;1.90;;;21.60;73.40;;;;;;5032771;28;20022;-72
2021/10/16 06:02:49;;;;;;;2.28;2.08;;;21.60;73.00;;;;;;5033036;28;20100;-71
2021/10/16 06:05:16;;;;;;;2.13;2.03;;;21.80;72.90;;;;;;5032511;28;20041;-71
2021/10/16 06:07:43;;;;;;;2.30;2.10;;;22.00;72.40;;;;;;5031832;28;20025;-72
2021/10/16 06:10:11;;;;;;;2.50;2.20;;;21.80;72.60;;;;;;5032667;28;20077;-73
2021/10/16 06:12:38;;;;;;;2.13;2.03;;;21.90;72.60;;;;;;5032947;28;20387;-72
2021/10/16 06:15:06;;;;;;;3.58;2.20;;;21.70;72.50;;;;;;5032892;28;20109;-72
2021/10/16 06:17:33;;;;;;;2.42;2.22;;;21.60;73.50;;;;;;5032847;28;20021;-71
2021/10/16 06:20:01;;;;;;;2.85;2.40;;;21.70;72.80;;;;;;5033025;28;20486;-72
2021/10/16 06:22:28;;;;;;;2.45;2.25;;;21.90;74.00;;;;;;5032882;28;20025;-72
2021/10/16 06:24:55;;;;;;;2.50;2.40;;;21.70;72.50;;;;;;5034735;28;20029;-72
2021/10/16 06:27:23;;;;;;;2.50;2.40;;;21.70;73.70;;;;;;5036844;28;20358;-72
2021/10/16 06:29:51;;;;;;;2.45;2.35;;;21.70;72.90;;;;;;5019261;28;20049;-71
2021/10/16 06:32:18;;;;;;;2.50;2.30;;;21.80;72.90;;;;;;5036625;28;20470;-71
2021/10/16 06:34:46;;;;;;;2.50;2.40;;;22.00;72.10;;;;;;5036846;28;20022;-72
2021/10/16 06:37:13;;;;;;;2.20;2.10;;;21.70;72.40;;;;;;5036523;28;20068;-71
2021/10/16 06:39:40;;;;;;;2.50;2.30;;;21.60;72.00;;;;;;5036579;28;20074;-72
2021/10/16 06:42:08;;;;;;;2.65;2.30;;;21.70;72.60;;;;;;5036507;28;20017;-72
2021/10/16 06:44:35;;;;;;;2.50;2.30;;;21.70;71.90;;;;;;5036040;28;20025;-71
2021/10/16 06:47:03;;;;;;;2.40;2.30;;;21.70;72.30;;;;;;5036348;28;20041;-72
2021/10/16 06:49:30;;;;;;;2.65;2.17;;;21.90;71.50;;;;;;5018614;28;20124;-71
2021/10/16 06:51:58;;;;;;;2.38;2.17;;;21.80;72.20;;;;;;5036055;28;20025;-71
2021/10/16 06:54:26;;;;;;;2.40;2.30;;;21.90;72.50;;;;;;5036206;28;20486;-71
2021/10/16 06:56:53;;;;;;;2.20;2.00;;;21.90;72.50;;;;;;5034857;28;20071;-71
2021/10/16 06:59:20;;;;;;;2.00;1.90;;;21.60;72.40;;;;;;5036205;28;20045;-72
2021/10/16 07:01:48;;;;;;;2.17;2.03;;;21.50;72.40;;;;;;5018212;28;20028;-71
2021/10/16 07:04:15;;;;;;;2.40;2.30;;;21.40;73.50;;;;;;5035746;28;20516;-72
2021/10/16 07:06:42;;;;;;;2.60;2.50;;;21.30;73.90;;;;;;5018016;28;20033;-72
2021/10/16 07:09:10;;;;;;;3.08;2.50;;;21.20;74.50;;;;;;5035633;28;20032;-72
2021/10/16 07:11:37;;;;;;;2.17;2.08;;;21.00;74.50;;;;;;5035883;28;20021;-72
2021/10/16 07:14:04;;;;;;;2.20;2.00;;;20.80;74.60;;;;;;5035435;28;20021;-72
2021/10/16 07:16:32;;;;;;;2.50;2.30;;;20.60;74.20;;;;;;5017756;28;20375;-72
2021/10/16 07:18:59;;;;;;;2.03;1.92;;;20.50;75.00;;;;;;5035445;28;20040;-71
2021/10/16 07:21:26;;;;;;;2.53;2.35;;;20.40;75.50;;;;;;5035458;28;20018;-73
2021/10/16 07:23:53;;;;;;;2.47;2.30;;;20.30;74.90;;;;;;5017470;28;20048;-72
2021/10/16 07:26:21;;;;;;;2.38;2.17;;;20.10;75.20;;;;;;5035955;28;20112;-70
2021/10/16 07:28:48;;;;;;;2.97;2.10;;;20.00;75.60;;;;;;5035283;28;20100;-71
2021/10/16 07:31:16;;;;;;;3.20;2.70;;;19.90;75.30;;;;;;5035466;28;20017;-70
2021/10/16 07:33:43;;;;;;;2.60;2.40;;;19.80;75.50;;;;;;5034207;28;20029;-71
2021/10/16 07:36:10;;;;;;;3.17;2.60;;;19.80;76.00;;;;;;5035327;28;20033;-69
2021/10/16 07:38:38;;;;;;;2.40;2.20;;;19.70;75.50;;;;;;5035655;28;20028;-69
2021/10/16 07:41:05;;;;;;;3.35;2.42;;;19.60;75.70;;;;;;5035521;28;20207;-69
2021/10/16 07:43:32;;;;;;;2.53;2.42;;;19.50;75.50;;;;;;5035458;28;20017;-70
2021/10/16 07:46:00;;;;;;;2.58;2.47;;;19.50;76.00;;;;;;5017181;28;20120;-71
2021/10/16 07:48:27;;;;;;;2.90;2.70;;;19.40;76.20;;;;;;5035114;28;20072;-70
2021/10/16 07:50:54;;;;;;;3.58;2.60;;;19.40;76.70;;;;;;5035055;28;20097;-69
2021/10/16 07:53:22;;;;;;;2.60;2.40;;;19.30;77.00;;;;;;5035227;28;20041;-70
2021/10/16 07:55:49;;;;;;;2.55;2.42;;;19.30;77.00;;;;;;5034896;28;20022;-71
2021/10/16 07:58:17;;;;;;;2.40;2.30;;;19.20;78.00;;;;;;5035113;28;20417;-70
2021/10/16 08:00:44;;;;;;;2.38;2.20;;;19.20;77.30;;;;;;5034841;28;20028;-70
2021/10/16 08:03:11;;;;;;;2.50;2.30;;;19.10;78.10;;;;;;5034546;28;20078;-70
2021/10/16 08:05:38;;;;;;;2.60;2.40;;;19.00;77.70;;;;;;5034479;28;20052;-70
2021/10/16 08:08:06;;;;;;;2.60;2.40;;;19.00;78.00;;;;;;5034806;28;20020;-71
2021/10/16 08:10:33;;;;;;;2.47;2.38;;;19.00;78.40;;;;;;5034637;28;20017;-70
2021/10/16 08:13:01;;;;;;;2.58;2.38;;;18.90;78.80;;;;;;5034410;28;20022;-70
2021/10/16 08:15:28;;;;;;;2.60;2.40;;;18.90;78.30;;;;;;5034250;28;20026;-70
2021/10/16 08:17:55;;;;;;;2.50;2.35;;;18.90;78.60;;;;;;5034613;28;20056;-73
2021/10/16 08:20:23;;;;;;;2.60;2.40;;;18.80;79.20;;;;;;5034491;28;20092;-71
2021/10/16 08:22:50;;;;;;;2.72;2.53;;;18.80;79.50;;;;;;5016720;28;20050;-69
2021/10/16 08:25:17;;;;;;;2.95;2.60;;;18.70;80.10;;;;;;5034233;28;20092;-72
2021/10/16 08:27:48;;;;;;;2.55;2.40;;;18.60;80.50;;;;;;5034316;28;20076;-70
2021/10/16 08:30:16;;;;;;;2.47;2.38;;;18.60;80.30;;;;;;5034437;28;20026;-70
2021/10/16 08:32:44;;;;;;;2.40;2.20;;;18.50;80.40;;;;;;5034345;28;20030;-71
2021/10/16 08:35:11;;;;;;;2.38;2.20;;;18.50;80.40;;;;;;5034347;28;20060;-71
2021/10/16 08:37:39;;;;;;;2.60;2.47;;;18.50;79.90;;;;;;5034218;28;20104;-69
2021/10/16 08:40:07;;;;;;;4.95;2.47;;;18.50;80.10;;;;;;5033945;28;20025;-70
2021/10/16 08:42:38;;;;;;;2.47;2.38;;;18.50;80.00;;;;;;5016286;28;20545;-70
2021/10/16 08:45:06;;;;;;;2.72;2.28;;;18.40;80.30;;;;;;5032442;28;20033;-69
2021/10/16 08:47:36;;;;;;;2.60;2.40;;;18.40;80.00;;;;;;5033243;28;20429;-70
2021/10/16 08:50:06;;;;;;;3.10;2.90;;;18.40;80.20;;;;;;5032455;28;20041;-72
2021/10/16 08:52:34;;;;;;;2.78;2.60;;;18.40;80.10;;;;;;5033870;28;20025;-71
2021/10/16 08:55:02;;;;;;;2.85;2.65;;;18.40;80.20;;;;;;5033739;28;20033;-71
2021/10/16 08:57:34;;;;;;;2.90;2.70;;;18.30;80.60;;;;;;5033430;28;20482;-70
2021/10/16 09:00:36;;;;;;;3.08;2.88;;;18.30;80.80;;;;;;5033968;28;20035;-71
2021/10/16 09:03:25;;;;;;;2.58;2.47;;;18.30;80.70;;;;;;5009451;28;20041;-70
2021/10/16 09:06:01;;;;;;;2.75;2.65;;;18.30;80.70;;;;;;5023584;28;20465;-71
2021/10/16 09:08:37;;;;;;;2.60;2.40;;;18.20;80.90;;;;;;5015991;28;20021;-71
2021/10/16 09:11:32;;;;;;;2.30;2.10;;;18.20;81.20;;;;;;5033634;28;20105;-72
2021/10/16 09:14:18;;;;;;;2.60;2.40;;;18.20;81.20;;;;;;5031802;28;20097;-72
2021/10/16 09:16:51;;;;;;;2.47;2.28;;;18.20;81.50;;;;;;5033269;28;20713;-71
2021/10/16 09:19:26;;;;;;;2.45;2.20;;;18.20;81.40;;;;;;5033771;28;20470;-70
2021/10/16 09:22:03;;;;;;;4.00;2.65;;;18.30;81.40;;;;;;5033541;28;20041;-71
2021/10/16 09:24:34;;;;;;;2.40;2.30;;;18.10;81.50;;;;;;5033157;28;20025;-71
2021/10/16 09:27:03;;;;;;;3.20;2.38;;;18.10;81.80;;;;;;5033242;28;20098;-71
2021/10/16 09:29:33;;;;;;;2.30;2.20;;;18.10;81.90;;;;;;5033142;28;20382;-70
2021/10/16 09:32:05;;;;;;;2.50;2.30;;;18.00;81.90;;;;;;5033261;28;20362;-72
2021/10/16 09:34:35;;;;;;;2.97;2.78;;;18.00;81.70;;;;;;5031703;28;20367;-71
2021/10/16 09:37:16;;;;;;;3.67;2.50;;;18.00;81.90;;;;;;5033212;28;20032;-71
2021/10/16 09:39:55;;;;;;;2.88;2.70;;;17.90;82.00;;;;;;5033232;28;20056;-71
2021/10/16 09:42:36;;;;;;;2.83;2.42;;;18.00;82.10;;;;;;5033245;28;20387;-71
2021/10/16 09:45:07;;;;;;;2.90;2.60;;;17.90;82.60;;;;;;5033173;28;20017;-71
2021/10/16 09:47:35;;;;;;;3.10;2.50;;;17.80;82.40;;;;;;5033576;28;20343;-72
2021/10/16 09:50:11;;;;;;;2.67;2.58;;;17.80;82.30;;;;;;5031627;28;20031;-70
2021/10/16 09:52:45;;;;;;;2.90;2.63;;;17.80;82.70;;;;;;5032839;28;20022;-71
2021/10/16 09:55:14;;;;;;;3.40;2.70;;;17.70;83.10;;;;;;5015432;28;20049;-71
2021/10/16 09:57:42;;;;;;;2.60;2.50;;;17.70;82.60;;;;;;5032769;28;20459;-72
2021/10/16 10:00:11;;;;;;;2.88;2.75;;;17.70;83.00;;;;;;5032192;28;20413;-72
2021/10/16 10:02:39;;;;;;;2.88;2.67;;;17.70;83.30;;;;;;5032869;28;20100;-72
2021/10/16 10:05:08;;;;;;;2.90;2.70;;;17.60;83.40;;;;;;5032950;28;20049;-72
2021/10/16 10:07:36;;;;;;;3.92;2.65;;;17.70;83.30;;;;;;5032966;28;20083;-72
2021/10/16 10:10:06;;;;;;;2.70;2.50;;;17.60;83.50;;;;;;5033266;28;20482;-71
2021/10/16 10:12:34;;;;;;;2.97;2.78;;;17.60;83.20;;;;;;5032825;28;20022;-70
2021/10/16 10:15:01;;;;;;;3.28;2.30;;;17.60;83.30;;;;;;5032886;28;20488;-71
2021/10/16 10:17:35;;;;;;;5.05;3.13;;;17.60;83.30;;;;;;5032750;28;20551;-72
2021/10/16 10:20:09;;;;;;;3.28;2.55;;;17.50;83.50;;;;;;5015079;28;20030;-71
2021/10/16 10:22:37;;;;;;;3.00;2.80;;;17.50;83.50;;;;;;5031490;28;20485;-71
2021/10/16 10:25:24;;;;;;;3.97;2.20;;;17.40;84.10;;;;;;5032578;28;20100;-71
2021/10/16 10:27:56;;;;;;;3.00;2.40;;;17.40;84.30;;;;;;5032797;28;20323;-71
2021/10/16 10:30:35;;;;;;;2.60;2.30;;;17.30;84.50;;;;;;5032756;28;20021;-71
2021/10/16 10:33:20;;;;;;;3.42;2.60;;;17.30;84.40;;;;;;5032551;28;20049;-71
2021/10/16 10:36:19;;;;;;;2.45;2.33;;;17.30;84.70;;;;;;5032639;28;20030;-71
2021/10/16 10:38:46;;;;;;;2.55;2.40;;;17.30;84.70;;;;;;5032320;28;20091;-71
2021/10/16 10:41:25;;;;;;;2.80;2.60;;;17.20;85.20;;;;;;5014854;28;20072;-70
2021/10/16 10:43:54;;;;;;;2.95;2.63;;;17.20;85.40;;;;;;5032606;28;20097;-71
2021/10/16 10:46:30;;;;;;;2.70;2.50;;;17.10;85.90;;;;;;5032504;28;20025;-71
2021/10/16 10:49:13;;;;;;;3.38;2.50;;;17.10;85.40;;;;;;5032672;28;20467;-71
2021/10/16 10:51:40;;;;;;;3.05;2.50;;;17.10;85.90;;;;;;5032632;28;20118;-71
2021/10/16 10:54:17;;;;;;;2.50;2.38;;;17.00;86.20;;;;;;5032609;28;20029;-71
2021/10/16 10:56:49;;;;;;;2.30;2.20;;;17.00;86.10;;;;;;5032321;28;20152;-71
2021/10/16 10:59:18;;;;;;;2.67;2.30;;;16.90;86.40;;;;;;5032151;28;20060;-71
2021/10/16 11:02:03;;;;;;;2.78;2.50;;;16.80;86.80;;;;;;5032387;28;20467;-71
2021/10/16 11:04:52;;;;;;;3.40;3.03;;;16.70;87.60;;;;;;5030575;28;20033;-72
2021/10/16 11:07:30;;;;;;;2.65;2.50;;;16.50;89.00;;;;;;5032326;28;20022;-71
2021/10/16 11:09:58;;;;;;;2.78;2.53;;;16.30;90.10;;;;;;5014965;28;20022;-70
2021/10/16 11:12:31;;;;;;;3.20;2.95;;;16.10;90.30;;;;;;5035969;28;20028;-71
2021/10/16 11:15:01;;;;;;;5.10;4.70;;;16.00;90.80;;;;;;5035874;28;20032;-71
2021/10/16 11:17:43;;;;;;;3.50;3.20;;;15.90;91.50;;;;;;5017965;28;20116;-71
2021/10/16 11:20:19;;;;;;;3.20;2.90;;;15.80;91.20;;;;;;5034833;28;20366;-72
2021/10/16 11:22:53;;;;;;;2.80;2.60;;;15.70;91.40;;;;;;5035635;28;20029;-71
2021/10/16 11:25:24;;;;;;;3.00;2.80;;;15.70;90.70;;;;;;5035672;28;20494;-71
2021/10/16 11:28:07;;;;;;;3.13;2.85;;;15.90;90.40;;;;;;5035697;28;20376;-71
2021/10/16 11:30:41;;;;;;;3.72;3.08;;;16.00;90.10;;;;;;5035882;28;20100;-71
2021/10/16 11:33:13;;;;;;;2.75;2.60;;;16.10;90.10;;;;;;5034183;28;20501;-71
2021/10/16 11:35:45;;;;;;;3.20;3.00;;;16.10;89.70;;;;;;5017463;28;20026;-71
2021/10/16 11:38:14;;;;;;;3.00;2.70;;;16.10;89.70;;;;;;5035329;28;20021;-71
2021/10/16 11:40:42;;;;;;;4.20;2.67;;;16.10;88.90;;;;;;5035241;28;20074;-71
2021/10/16 11:43:14;;;;;;;2.95;2.70;;;16.10;89.50;;;;;;5033694;28;20128;-71
2021/10/16 11:45:43;;;;;;;3.13;2.83;;;16.20;89.20;;;;;;5017576;28;20061;-71
2021/10/16 11:48:13;;;;;;;3.05;2.70;;;16.10;89.30;;;;;;5035174;28;20029;-71
2021/10/16 11:50:47;;;;;;;3.03;2.83;;;16.10;90.00;;;;;;5033799;28;20044;-71
2021/10/16 11:53:19;;;;;;;3.20;3.00;;;16.00;89.80;;;;;;5033683;28;20036;-72
2021/10/16 11:55:50;;;;;;;3.15;2.85;;;16.00;90.30;;;;;;5035067;28;20103;-71
2021/10/16 11:58:19;;;;;;;4.07;3.20;;;16.00;90.30;;;;;;5035056;28;20033;-72
2021/10/16 12:01:00;;;;;;;3.38;3.10;;;16.00;90.30;;;;;;5035078;28;20501;-71
2021/10/16 12:03:40;;;;;;;3.58;3.22;;;15.90;90.10;;;;;;5033977;28;20483;-72
2021/10/16 12:06:09;;;;;;;3.25;3.05;;;16.00;89.90;;;;;;5034874;28;20406;-71
2021/10/16 12:08:50;;;;;;;4.22;3.20;;;15.90;89.90;;;;;;5034779;28;20354;-71
2021/10/16 12:11:24;;;;;;;3.20;2.90;;;15.90;89.90;;;;;;5034773;28;20426;-72
2021/10/16 12:14:00;;;;;;;4.55;3.10;;;15.90;89.90;;;;;;5034553;28;20042;-71
2021/10/16 12:16:36;;;;;;;3.30;3.00;;;15.90;89.80;;;;;;5034575;28;20031;-71
2021/10/16 12:19:15;;;;;;;3.75;3.10;;;15.90;90.00;;;;;;5016861;28;20029;-70
2021/10/16 12:21:51;;;;;;;3.75;3.10;;;15.90;90.20;;;;;;5033984;28;20021;-71
2021/10/16 12:24:22;;;;;;;3.70;3.40;;;15.90;90.10;;;;;;5034753;28;20474;-71
2021/10/16 12:27:11;;;;;;;3.50;3.20;;;15.90;90.20;;;;;;5016803;28;20482;-71
2021/10/16 12:29:42;;;;;;;3.40;3.20;;;15.90;89.80;;;;;;5016616;28;20109;-71
2021/10/16 12:32:11;;;;;;;3.75;3.30;;;15.90;89.80;;;;;;5033345;28;20029;-71
2021/10/16 12:34:41;;;;;;;4.13;3.53;;;15.90;90.20;;;;;;5034459;28;20515;-72
2021/10/16 12:37:17;;;;;;;3.63;3.38;;;15.90;89.90;;;;;;5016440;28;20475;-71
2021/10/16 12:39:47;;;;;;;3.70;3.30;;;15.70;89.90;;;;;;5034332;28;20527;-72
2021/10/16 12:42:28;;;;;;;3.33;3.03;;;15.90;89.90;;;;;;5034294;28;20031;-72
2021/10/16 12:45:06;;;;;;;3.10;2.90;;;15.80;89.90;;;;;;5032603;28;20112;-72
2021/10/16 12:47:34;;;;;;;3.17;2.88;;;15.80;90.10;;;;;;5033963;28;20026;-72
2021/10/16 12:50:04;;;;;;;3.00;2.80;;;15.70;90.40;;;;;;5033779;28;20470;-72
2021/10/16 12:55:18;;;;;;;3.03;2.83;;;15.50;91.40;;;;;;5034129;28;20056;-71
2021/10/16 12:58:06;;;;;;;2.80;2.60;;;15.30;92.00;;;;;;5034050;28;20516;-71
2021/10/16 13:00:38;;;;;;;3.47;3.17;;;15.10;92.90;;;;;;5032401;28;20140;-72
2021/10/16 13:03:07;;;;;;;8.13;3.20;;;14.90;93.30;;;;;;5034152;28;20131;-72
2021/10/16 13:05:34;;;;;;;3.00;2.80;;;14.70;94.00;;;;;;5015788;28;20053;-71